createdAt,value
2022-09-28T00:00:01.946Z,9.10
2022-09-28T00:02:31.315Z,9.20
2022-09-28T00:05:00.436Z,9.20
2022-09-28T00:07:30.343Z,9.20
2022-09-28T00:09:59.262Z,9.20
2022-09-28T00:12:28.304Z,9.20
2022-09-28T00:14:59.248Z,9.30
2022-09-28T00:17:29.954Z,9.20
2022-09-28T00:19:59.528Z,9.30
2022-09-28T00:22:29.897Z,9.30
2022-09-28T00:24:58.924Z,9.30
2022-09-28T00:27:28.174Z,9.30
2022-09-28T00:29:58.806Z,9.20
2022-09-28T00:32:29.400Z,9.20
2022-09-28T00:34:58.754Z,9.20
2022-09-28T00:37:27.734Z,9.20
2022-09-28T00:39:56.651Z,9.20
2022-09-28T00:42:28.122Z,9.20
2022-09-28T00:44:59.442Z,9.10
2022-09-28T00:47:43.902Z,9.20
2022-09-28T00:50:19.432Z,9.10
2022-09-28T00:52:53.984Z,9.10
2022-09-28T00:55:29.939Z,9.20
2022-09-28T00:58:01.628Z,9.00
2022-09-28T01:00:32.489Z,9.00
2022-09-28T01:03:01.230Z,8.90
2022-09-28T01:05:30.300Z,8.80
2022-09-28T01:07:59.938Z,8.80
2022-09-28T01:10:31.394Z,8.70
2022-09-28T01:13:00.949Z,8.70
2022-09-28T01:15:35.943Z,8.80
2022-09-28T01:18:13.434Z,8.80
2022-09-28T01:20:58.738Z,8.80
2022-09-28T01:23:49.157Z,8.90
2022-09-28T01:27:02.635Z,8.90
2022-09-28T01:29:44.906Z,8.90
2022-09-28T01:32:23.078Z,8.90
2022-09-28T01:35:01.626Z,8.90
2022-09-28T01:37:39.217Z,8.90
2022-09-28T01:40:11.187Z,8.90
2022-09-28T01:42:42.840Z,8.90
2022-09-28T01:45:20.280Z,9.00
2022-09-28T01:47:50.370Z,9.00
2022-09-28T01:50:23.065Z,9.00
2022-09-28T01:52:56.715Z,9.00
2022-09-28T01:55:33.387Z,9.00
2022-09-28T01:58:07.606Z,9.10
2022-09-28T02:00:42.753Z,9.00
2022-09-28T02:03:17.549Z,9.00
2022-09-28T02:05:52.600Z,9.00
2022-09-28T02:08:27.343Z,9.00
2022-09-28T02:11:02.063Z,9.00
2022-09-28T02:13:34.855Z,9.00
2022-09-28T02:16:08.509Z,9.10
2022-09-28T02:18:37.808Z,9.20
2022-09-28T02:21:14.735Z,9.30
2022-09-28T02:23:53.142Z,9.40
2022-09-28T02:26:24.770Z,9.30
2022-09-28T02:28:57.030Z,9.30
2022-09-28T02:31:28.280Z,9.30
2022-09-28T02:33:59.374Z,9.40
2022-09-28T02:36:29.835Z,9.30
2022-09-28T02:39:02.615Z,9.30
2022-09-28T02:41:49.930Z,9.40
2022-09-28T02:44:35.673Z,9.40
2022-09-28T02:47:22.240Z,9.40
2022-09-28T02:49:56.211Z,9.40
2022-09-28T02:52:43.405Z,9.30
2022-09-28T02:55:21.660Z,9.30
2022-09-28T02:58:08.005Z,9.30
2022-09-28T03:00:45.646Z,9.30
2022-09-28T03:03:21.872Z,9.30
2022-09-28T03:06:01.441Z,9.30
2022-09-28T03:08:36.532Z,9.30
2022-09-28T03:11:09.193Z,9.30
2022-09-28T03:13:38.465Z,9.20
2022-09-28T03:16:11.997Z,9.30
2022-09-28T03:18:43.182Z,9.20
2022-09-28T03:21:14.099Z,9.20
2022-09-28T03:23:43.198Z,9.20
2022-09-28T03:26:13.232Z,9.20
2022-09-28T03:28:42.106Z,9.20
2022-09-28T03:31:11.267Z,9.20
2022-09-28T03:33:42.999Z,9.20
2022-09-28T03:36:11.693Z,9.20
2022-09-28T03:38:40.773Z,9.30
2022-09-28T03:41:09.734Z,9.20
2022-09-28T03:43:38.981Z,9.10
2022-09-28T03:46:08.279Z,9.10
2022-09-28T03:48:37.957Z,9.00
2022-09-28T03:51:10.904Z,9.00
2022-09-28T03:53:40.895Z,8.90
2022-09-28T03:56:14.340Z,9.00
2022-09-28T03:58:44.055Z,8.90
2022-09-28T04:01:19.153Z,8.90
2022-09-28T04:03:57.464Z,9.10
2022-09-28T04:06:29.664Z,9.00
2022-09-28T04:09:01.661Z,9.00
2022-09-28T04:11:47.533Z,9.00
2022-09-28T04:14:19.403Z,9.30
2022-09-28T04:16:49.330Z,9.10
2022-09-28T04:19:18.200Z,9.10
2022-09-28T04:21:48.666Z,9.10
2022-09-28T04:24:17.746Z,9.10
2022-09-28T04:26:46.613Z,9.10
2022-09-28T04:29:17.697Z,9.20
2022-09-28T04:31:49.879Z,9.00
2022-09-28T04:34:22.948Z,9.00
2022-09-28T04:36:53.117Z,9.00
2022-09-28T04:39:22.881Z,9.00
2022-09-28T04:41:51.686Z,8.90
2022-09-28T04:44:20.505Z,8.30
2022-09-28T04:46:49.804Z,8.90
2022-09-28T04:49:19.047Z,8.90
2022-09-28T04:51:49.357Z,9.00
2022-09-28T04:54:19.979Z,8.90
2022-09-28T04:56:49.205Z,9.00
2022-09-28T04:59:18.120Z,9.00
2022-09-28T05:01:47.817Z,9.00
2022-09-28T05:04:19.468Z,9.00
2022-09-28T05:06:50.682Z,9.00
2022-09-28T05:09:25.072Z,9.10
2022-09-28T05:12:08.819Z,9.10
2022-09-28T05:14:41.301Z,9.10
2022-09-28T05:17:43.183Z,9.10
2022-09-28T05:20:17.777Z,9.10
2022-09-28T05:22:49.820Z,9.10
2022-09-28T05:25:29.590Z,9.40
2022-09-28T05:28:16.229Z,9.10
2022-09-28T05:30:51.382Z,9.10
2022-09-28T05:33:24.753Z,9.10
2022-09-28T05:36:01.684Z,9.10
2022-09-28T05:38:34.360Z,9.10
2022-09-28T05:41:11.228Z,9.00
2022-09-28T05:43:59.488Z,9.20
2022-09-28T05:46:42.467Z,9.30
2022-09-28T05:49:26.287Z,9.20
2022-09-28T05:51:55.932Z,8.90
2022-09-28T05:54:24.923Z,9.20
2022-09-28T05:56:58.192Z,9.20
2022-09-28T05:59:27.176Z,9.20
2022-09-28T06:01:57.349Z,9.20
2022-09-28T06:04:26.326Z,9.20
2022-09-28T06:06:56.328Z,9.90
2022-09-28T06:09:26.275Z,10.40
2022-09-28T06:11:57.541Z,10.50
2022-09-28T06:14:28.738Z,10.20
2022-09-28T06:16:57.914Z,9.90
2022-09-28T06:19:29.178Z,9.80
2022-09-28T06:21:59.354Z,9.70
2022-09-28T06:24:28.511Z,9.70
2022-09-28T06:27:01.044Z,9.70
2022-09-28T06:29:30.550Z,9.70
2022-09-28T06:32:00.185Z,9.70
2022-09-28T06:34:30.532Z,9.70
2022-09-28T06:36:59.949Z,9.70
2022-09-28T06:39:29.013Z,9.70
2022-09-28T06:42:05.064Z,9.70
2022-09-28T06:44:34.366Z,9.70
2022-09-28T06:47:03.910Z,9.70
2022-09-28T06:49:34.298Z,9.80
2022-09-28T06:52:03.299Z,9.80
2022-09-28T06:54:32.819Z,9.80
2022-09-28T06:57:03.696Z,9.80
2022-09-28T06:59:34.170Z,9.70
2022-09-28T07:02:03.519Z,9.80
2022-09-28T07:04:33.235Z,9.70
2022-09-28T07:07:02.130Z,9.60
2022-09-28T07:09:33.922Z,9.60
2022-09-28T07:12:10.854Z,9.40
2022-09-28T07:14:47.797Z,9.60
2022-09-28T07:17:17.558Z,9.60
2022-09-28T07:19:53.009Z,9.50
2022-09-28T07:22:36.801Z,9.50
2022-09-28T07:25:11.491Z,9.60
2022-09-28T07:27:44.539Z,9.60
2022-09-28T07:30:14.584Z,9.60
2022-09-28T07:32:44.215Z,9.60
2022-09-28T07:35:13.567Z,9.60
2022-09-28T07:37:49.078Z,9.60
2022-09-28T07:40:35.550Z,9.60
2022-09-28T07:43:10.047Z,9.70
2022-09-28T07:45:39.437Z,9.70
2022-09-28T07:48:09.330Z,9.70
2022-09-28T07:50:38.340Z,9.80
2022-09-28T07:53:07.386Z,9.80
2022-09-28T07:55:36.366Z,9.80
2022-09-28T07:58:05.306Z,9.80
2022-09-28T08:00:38.582Z,9.70
2022-09-28T08:03:08.309Z,9.90
2022-09-28T08:05:37.815Z,9.90
2022-09-28T08:08:07.989Z,10.00
2022-09-28T08:10:38.046Z,10.10
2022-09-28T08:13:08.826Z,10.10
2022-09-28T08:15:41.193Z,10.10
2022-09-28T08:18:11.461Z,10.10
2022-09-28T08:20:58.131Z,10.30
2022-09-28T08:23:27.322Z,10.30
2022-09-28T08:25:56.714Z,10.40
2022-09-28T08:28:30.882Z,10.50
2022-09-28T08:31:06.114Z,10.50
2022-09-28T08:33:41.570Z,10.50
2022-09-28T08:36:13.889Z,10.50
2022-09-28T08:38:47.772Z,10.50
2022-09-28T08:41:25.716Z,10.70
2022-09-28T08:44:38.192Z,11.00
2022-09-28T08:47:36.862Z,11.50
2022-09-28T08:50:12.823Z,11.60
2022-09-28T08:52:44.649Z,11.50
2022-09-28T08:55:31.610Z,11.50
2022-09-28T08:58:06.436Z,11.50
2022-09-28T09:00:47.599Z,11.60
2022-09-28T09:03:25.307Z,11.70
2022-09-28T09:06:05.378Z,11.90
2022-09-28T09:08:45.335Z,12.00
2022-09-28T09:11:27.075Z,12.10
2022-09-28T09:14:24.328Z,12.20
2022-09-28T09:17:07.747Z,12.50
2022-09-28T09:20:00.676Z,12.50
2022-09-28T09:22:41.464Z,12.80
2022-09-28T09:25:22.324Z,12.60
2022-09-28T09:28:36.747Z,12.60
2022-09-28T09:31:27.280Z,12.50
2022-09-28T09:34:23.151Z,12.30
2022-09-28T09:37:21.240Z,12.30
2022-09-28T09:40:18.207Z,12.40
2022-09-28T09:46:14.083Z,13.10
2022-09-28T09:49:02.190Z,14.00
2022-09-28T09:51:41.883Z,14.50
2022-09-28T09:54:36.279Z,14.70
2022-09-28T09:57:14.450Z,15.10
2022-09-28T09:59:55.975Z,15.40
2022-09-28T10:02:28.180Z,15.10
2022-09-28T10:05:09.617Z,14.70
2022-09-28T10:07:58.214Z,14.20
2022-09-28T10:10:33.738Z,13.80
2022-09-28T10:13:14.029Z,13.60
2022-09-28T10:15:51.935Z,13.40
2022-09-28T10:18:29.116Z,13.30
2022-09-28T10:21:05.138Z,13.30
2022-09-28T10:23:39.170Z,13.40
2022-09-28T10:26:15.210Z,13.80
2022-09-28T10:28:54.059Z,14.00
2022-09-28T10:31:56.663Z,14.20
2022-09-28T10:34:31.672Z,14.40
2022-09-28T10:37:12.420Z,14.80
2022-09-28T10:39:49.341Z,15.10
2022-09-28T10:42:27.574Z,15.60
2022-09-28T10:45:01.387Z,16.10
2022-09-28T10:47:33.276Z,16.60
2022-09-28T10:50:02.975Z,16.80
2022-09-28T10:52:37.688Z,16.60
2022-09-28T10:55:28.696Z,16.40
2022-09-28T10:57:59.825Z,15.90
2022-09-28T11:00:39.697Z,15.70
2022-09-28T11:03:19.501Z,16.10
2022-09-28T11:05:57.027Z,16.40
2022-09-28T11:08:30.357Z,16.20
2022-09-28T11:11:10.891Z,15.90
2022-09-28T11:14:00.951Z,15.50
2022-09-28T11:16:31.702Z,15.00
2022-09-28T11:19:06.310Z,14.50
2022-09-28T11:21:46.208Z,14.50
2022-09-28T11:24:23.511Z,14.10
2022-09-28T11:26:56.744Z,13.80
2022-09-28T11:29:43.477Z,13.70
2022-09-28T11:32:15.982Z,13.60
2022-09-28T11:35:02.415Z,13.50
2022-09-28T11:37:48.352Z,13.40
2022-09-28T11:40:30.829Z,13.60
2022-09-28T11:43:13.325Z,13.70
2022-09-28T11:45:57.794Z,13.90
2022-09-28T11:48:43.908Z,14.10
2022-09-28T11:51:20.636Z,14.20
2022-09-28T11:53:54.623Z,14.40
2022-09-28T11:56:36.039Z,14.60
2022-09-28T11:59:13.457Z,14.70
2022-09-28T12:01:50.993Z,14.80
2022-09-28T12:04:26.146Z,14.70
2022-09-28T12:07:02.151Z,14.60
2022-09-28T12:09:44.888Z,14.50
2022-09-28T12:12:22.739Z,14.40
2022-09-28T12:14:55.667Z,14.40
2022-09-28T12:17:33.406Z,14.50
2022-09-28T12:20:14.701Z,14.70
2022-09-28T12:22:50.005Z,14.70
2022-09-28T12:25:23.207Z,14.70
2022-09-28T12:28:02.245Z,14.60
2022-09-28T12:30:39.122Z,14.40
2022-09-28T12:33:16.250Z,14.40
2022-09-28T12:36:14.484Z,14.10
2022-09-28T12:39:18.060Z,14.00
2022-09-28T12:42:02.222Z,14.20
2022-09-28T12:44:59.433Z,14.00
2022-09-28T12:48:15.975Z,14.20
2022-09-28T12:51:05.424Z,14.60
2022-09-28T12:53:53.486Z,15.00
2022-09-28T12:56:33.338Z,15.20
2022-09-28T12:59:16.727Z,15.40
2022-09-28T13:02:10.317Z,15.40
2022-09-28T13:05:12.938Z,15.30
2022-09-28T13:07:51.627Z,15.40
2022-09-28T13:10:47.690Z,15.60
2022-09-28T13:13:37.383Z,15.80
2022-09-28T13:16:18.904Z,15.60
2022-09-28T13:18:54.858Z,16.00
2022-09-28T13:21:32.663Z,16.10
2022-09-28T13:24:27.902Z,16.30
2022-09-28T13:26:57.573Z,16.50
2022-09-28T13:29:30.412Z,16.70
2022-09-28T13:32:02.952Z,16.90
2022-09-28T13:34:52.871Z,16.80
2022-09-28T13:37:25.799Z,16.60
2022-09-28T13:40:08.587Z,16.50
2022-09-28T13:43:03.945Z,16.30
2022-09-28T13:45:58.108Z,15.90
2022-09-28T13:48:44.666Z,15.80
2022-09-28T13:51:29.229Z,15.40
2022-09-28T13:54:21.747Z,15.00
2022-09-28T13:57:00.871Z,14.80
2022-09-28T13:59:32.388Z,14.50
2022-09-28T14:02:15.704Z,14.10
2022-09-28T14:04:58.073Z,14.20
2022-09-28T14:07:42.235Z,14.10
2022-09-28T14:10:21.196Z,14.00
2022-09-28T14:12:53.204Z,13.80
2022-09-28T14:15:51.662Z,13.70
2022-09-28T14:18:30.347Z,13.50
2022-09-28T14:21:38.639Z,13.30
2022-09-28T14:24:20.066Z,13.20
2022-09-28T14:27:33.427Z,13.10
2022-09-28T14:30:26.641Z,13.00
2022-09-28T14:32:58.757Z,12.90
2022-09-28T14:35:34.587Z,12.80
2022-09-28T14:38:27.936Z,12.80
2022-09-28T14:41:27.163Z,12.70
2022-09-28T14:47:58.545Z,12.50
2022-09-28T15:03:38.104Z,12.30
2022-09-28T15:09:39.162Z,12.30
2022-09-28T15:15:33.173Z,12.10
2022-09-28T15:18:52.577Z,12.10
2022-09-28T15:22:14.110Z,12.00
2022-09-28T15:25:29.307Z,12.00
2022-09-28T15:28:33.181Z,11.90
2022-09-28T15:31:13.389Z,11.90
2022-09-28T15:34:09.076Z,11.90
2022-09-28T15:36:47.018Z,11.90
2022-09-28T15:39:30.746Z,12.00
2022-09-28T15:42:09.683Z,12.00
2022-09-28T15:44:50.781Z,11.90
2022-09-28T15:47:42.883Z,11.90
2022-09-28T15:50:46.924Z,11.90
2022-09-28T16:00:14.261Z,11.90
2022-09-28T16:03:06.402Z,12.10
2022-09-28T16:05:42.860Z,12.00
2022-09-28T16:08:24.923Z,11.90
2022-09-28T16:11:06.928Z,11.90
2022-09-28T16:13:37.346Z,11.90
2022-09-28T16:16:06.941Z,11.70
2022-09-28T16:18:51.736Z,11.80
2022-09-28T16:21:35.123Z,11.80
2022-09-28T16:24:04.631Z,11.70
2022-09-28T16:26:37.546Z,11.60
2022-09-28T16:29:25.751Z,11.50
2022-09-28T16:31:58.685Z,11.40
2022-09-28T16:34:31.181Z,11.30
2022-09-28T16:37:14.650Z,11.30
2022-09-28T16:39:44.730Z,11.30
2022-09-28T16:42:23.653Z,11.20
2022-09-28T16:45:04.510Z,11.20
2022-09-28T16:47:35.055Z,11.10
2022-09-28T16:50:06.727Z,11.10
2022-09-28T16:52:49.503Z,11.10
2022-09-28T16:55:39.514Z,11.10
2022-09-28T16:58:11.490Z,11.10
2022-09-28T17:00:43.557Z,11.10
2022-09-28T17:03:15.951Z,11.10
2022-09-28T17:05:48.801Z,11.20
2022-09-28T17:08:19.801Z,11.20
2022-09-28T17:11:13.996Z,11.20
2022-09-28T17:13:45.390Z,11.20
2022-09-28T17:16:37.054Z,11.10
2022-09-28T17:19:22.648Z,11.10
2022-09-28T17:21:59.511Z,11.00
2022-09-28T17:24:31.937Z,11.00
2022-09-28T17:27:02.067Z,10.90
2022-09-28T17:29:47.012Z,10.80
2022-09-28T17:32:20.124Z,10.70
2022-09-28T17:35:00.740Z,10.70
2022-09-28T17:37:37.981Z,11.20
2022-09-28T17:40:20.537Z,11.10
2022-09-28T17:42:50.767Z,10.90
2022-09-28T17:45:20.516Z,10.80
2022-09-28T17:47:51.900Z,10.70
2022-09-28T17:50:24.646Z,10.60
2022-09-28T17:52:58.488Z,10.50
2022-09-28T17:55:30.975Z,10.60
2022-09-28T17:58:01.403Z,10.40
2022-09-28T18:00:31.429Z,10.40
2022-09-28T18:03:01.669Z,10.30
2022-09-28T18:05:32.670Z,10.30
2022-09-28T18:08:05.309Z,10.40
2022-09-28T18:10:35.597Z,10.40
2022-09-28T18:13:07.292Z,10.40
2022-09-28T18:15:37.033Z,10.40
2022-09-28T18:18:14.379Z,10.30
2022-09-28T18:20:46.716Z,10.30
2022-09-28T18:23:21.005Z,10.30
2022-09-28T18:25:50.193Z,10.30
2022-09-28T18:28:22.621Z,10.40
2022-09-28T18:30:54.973Z,10.30
2022-09-28T18:33:35.696Z,10.40
2022-09-28T18:36:06.051Z,10.30
2022-09-28T18:38:44.519Z,10.30
2022-09-28T18:41:25.020Z,10.20
2022-09-28T18:44:02.530Z,10.10
2022-09-28T18:46:40.378Z,10.10
2022-09-28T18:49:15.045Z,10.10
2022-09-28T18:51:50.589Z,10.10
2022-09-28T18:54:43.093Z,10.00
2022-09-28T18:57:12.931Z,10.00
2022-09-28T18:59:42.232Z,10.00
2022-09-28T19:02:13.330Z,10.00
2022-09-28T19:04:45.400Z,9.90
2022-09-28T19:07:14.939Z,9.90
2022-09-28T19:10:00.619Z,9.90
2022-09-28T19:12:29.889Z,9.80
2022-09-28T19:15:08.319Z,9.90
2022-09-28T19:17:52.506Z,9.80
2022-09-28T19:20:23.278Z,9.70
2022-09-28T19:22:57.298Z,10.20
2022-09-28T19:25:29.590Z,9.70
2022-09-28T19:28:17.622Z,9.60
2022-09-28T19:30:49.858Z,9.60
2022-09-28T19:33:20.200Z,9.60
2022-09-28T19:36:04.355Z,9.50
2022-09-28T19:38:35.524Z,9.50
2022-09-28T19:41:12.043Z,9.50
2022-09-28T19:43:44.747Z,9.50
2022-09-28T19:46:16.515Z,9.40
2022-09-28T19:48:53.090Z,9.40
2022-09-28T19:51:29.922Z,9.40
2022-09-28T19:54:05.569Z,9.00
2022-09-28T19:56:37.366Z,9.40
2022-09-28T19:59:11.747Z,9.30
2022-09-28T20:01:56.774Z,9.30
2022-09-28T20:13:14.501Z,9.30
2022-09-28T20:15:44.977Z,9.30
2022-09-28T20:18:14.339Z,9.30
2022-09-28T20:20:49.999Z,9.20
2022-09-28T20:23:22.450Z,9.20
2022-09-28T20:26:04.196Z,9.40
2022-09-28T20:28:47.719Z,9.20
2022-09-28T20:31:22.946Z,9.20
2022-09-28T20:33:53.424Z,9.20
2022-09-28T20:36:35.999Z,9.30
2022-09-28T20:39:06.330Z,9.40
2022-09-28T20:41:37.140Z,9.40
2022-09-28T20:44:15.339Z,9.50
2022-09-28T20:46:47.402Z,9.50
2022-09-28T20:49:18.470Z,9.50
2022-09-28T20:52:01.887Z,9.60
2022-09-28T20:57:30.322Z,9.60
2022-09-28T21:03:21.853Z,9.60
2022-09-28T21:06:12.280Z,9.60
2022-09-28T21:11:58.941Z,9.60
2022-09-28T21:14:45.241Z,9.50
2022-09-28T21:17:59.669Z,9.50
2022-09-28T21:20:46.780Z,9.50
2022-09-28T21:23:25.093Z,9.40
2022-09-28T21:26:05.482Z,9.40
2022-09-28T21:28:36.883Z,9.30
2022-09-28T21:31:29.137Z,9.30
2022-09-28T21:34:04.109Z,10.80
2022-09-28T21:36:41.071Z,10.30
2022-09-28T21:39:24.532Z,9.90
2022-09-28T21:41:54.714Z,9.50
2022-09-28T21:44:27.217Z,9.50
2022-09-28T21:47:02.568Z,9.40
2022-09-28T21:49:33.070Z,9.30
2022-09-28T21:52:14.403Z,9.30
2022-09-28T21:54:46.980Z,9.20
2022-09-28T21:57:16.059Z,9.10
2022-09-28T21:59:56.238Z,9.20
2022-09-28T22:02:36.625Z,9.10
2022-09-28T22:05:07.463Z,9.10
2022-09-28T22:07:46.649Z,9.10
2022-09-28T22:10:17.527Z,9.00
2022-09-28T22:12:55.232Z,9.00
2022-09-28T22:15:26.988Z,9.00
2022-09-28T22:17:58.548Z,9.10
2022-09-28T22:23:14.604Z,8.90
2022-09-28T22:25:45.004Z,8.90
2022-09-28T22:28:14.096Z,8.90
2022-09-28T22:30:43.093Z,8.80
2022-09-28T22:33:12.373Z,8.80
2022-09-28T22:35:41.652Z,8.70
2022-09-28T22:38:10.558Z,8.80
2022-09-28T22:40:44.447Z,8.80
2022-09-28T22:43:13.386Z,8.90
2022-09-28T22:45:43.482Z,8.70
2022-09-28T22:48:14.647Z,8.60
2022-09-28T22:50:51.074Z,8.30
2022-09-28T22:53:20.908Z,8.60
2022-09-28T22:55:51.473Z,8.50
2022-09-28T22:58:23.288Z,8.50
2022-09-28T23:00:53.021Z,8.40
2022-09-28T23:03:23.785Z,7.90
2022-09-28T23:05:57.013Z,8.40
2022-09-28T23:08:27.231Z,8.40
2022-09-28T23:10:58.188Z,8.40
2022-09-28T23:13:27.864Z,8.40
2022-09-28T23:15:59.350Z,8.30
2022-09-28T23:18:31.173Z,8.30
2022-09-28T23:21:01.639Z,8.30
2022-09-28T23:23:31.122Z,8.30
2022-09-28T23:26:19.982Z,8.20
2022-09-28T23:28:49.327Z,8.20
2022-09-28T23:31:22.142Z,8.30
2022-09-28T23:33:52.865Z,8.20
2022-09-28T23:36:22.398Z,8.20
2022-09-28T23:38:52.385Z,8.20
2022-09-28T23:41:27.868Z,8.20
2022-09-28T23:43:56.998Z,8.20
2022-09-28T23:46:26.142Z,8.10
2022-09-28T23:48:55.400Z,8.10
2022-09-28T23:51:24.762Z,8.40
2022-09-28T23:53:53.993Z,8.10
2022-09-28T23:56:40.338Z,8.00
2022-09-28T23:59:09.381Z,8.30
